Time;durP1;ratioP1;P1;durP2;ratioP2;P2;SDS_P1;SDS_P2;PMS_P1;PMS_P2;Temp;Humidity;BMP_temperature;BMP_pressure;BME280_temperature;BME280_humidity;BME280_pressure;Samples;Min_cycle;Max_cycle;Signal;HPM_P1;HPM_P2
2022/02/23 12:55:13;;;;;;;10.33;2.50;;;11.80;99.90;;;;;;5640366;23;20235;-78
2022/02/23 12:57:44;;;;;;;7.17;1.90;;;11.70;99.90;;;;;;4921835;29;20678;-77
2022/02/23 13:00:12;;;;;;;7.87;2.07;;;11.70;99.90;;;;;;4922770;29;20209;-77
2022/02/23 13:02:39;;;;;;;4.87;1.67;;;11.80;99.90;;;;;;4919734;29;20213;-77
2022/02/23 13:05:06;;;;;;;11.80;2.30;;;11.70;99.90;;;;;;4922745;29;20656;-77
2022/02/23 13:07:39;;;;;;;6.33;2.23;;;11.80;99.90;;;;;;4926772;29;20212;-77
2022/02/23 13:10:07;;;;;;;9.27;1.90;;;11.80;99.90;;;;;;4928489;29;20197;-77
2022/02/23 13:12:36;;;;;;;7.33;1.97;;;11.80;99.90;;;;;;4928367;29;20232;-77
2022/02/23 13:15:09;;;;;;;7.23;2.10;;;11.90;99.90;;;;;;4924919;29;20429;-77
2022/02/23 13:17:36;;;;;;;7.33;2.00;;;12.00;99.90;;;;;;4926179;29;20373;-77
2022/02/23 13:20:04;;;;;;;8.43;2.30;;;12.10;99.90;;;;;;4927602;29;20200;-78
2022/02/23 13:22:32;;;;;;;5.10;1.90;;;12.00;99.90;;;;;;4927216;29;20236;-79
2022/02/23 13:24:59;;;;;;;6.40;1.53;;;12.00;99.90;;;;;;4925291;29;20213;-77
2022/02/23 13:27:28;;;;;;;6.87;1.73;;;11.90;99.90;;;;;;4925577;29;20193;-77
2022/02/23 13:29:57;;;;;;;7.00;1.67;;;11.80;99.90;;;;;;4927733;29;20204;-77
2022/02/23 13:32:30;;;;;;;6.77;1.53;;;11.90;99.90;;;;;;4926658;29;20229;-77
2022/02/23 13:34:57;;;;;;;10.33;2.00;;;11.80;99.90;;;;;;4925774;29;20656;-77
2022/02/23 13:37:27;;;;;;;5.87;1.60;;;11.80;99.90;;;;;;4925705;29;20209;-77
2022/02/23 13:39:58;;;;;;;4.20;1.70;;;11.80;99.90;;;;;;4926599;29;20208;-78
2022/02/23 13:42:32;;;;;;;6.63;1.70;;;11.70;99.90;;;;;;4929667;29;20197;-77
2022/02/23 13:45:10;;;;;;;4.77;1.20;;;11.80;99.90;;;;;;4926596;29;20245;-77
2022/02/23 13:47:37;;;;;;;8.03;2.07;;;11.90;99.90;;;;;;4931153;29;20199;-81
2022/02/23 13:50:07;;;;;;;9.27;1.87;;;12.00;99.90;;;;;;4913990;29;20226;-77
2022/02/23 13:52:37;;;;;;;4.20;1.67;;;12.10;99.90;;;;;;4907552;29;20562;-78
2022/02/23 13:55:08;;;;;;;7.70;1.77;;;12.00;99.90;;;;;;4909617;29;20213;-82
2022/02/23 13:57:40;;;;;;;6.03;1.60;;;12.00;99.90;;;;;;4909094;29;20202;-78
2022/02/23 14:00:13;;;;;;;5.43;1.50;;;11.80;99.90;;;;;;4909728;29;20204;-78
2022/02/23 14:02:41;;;;;;;8.13;1.63;;;11.70;99.90;;;;;;4909008;29;20209;-78
2022/02/23 14:05:11;;;;;;;4.60;1.87;;;11.80;99.90;;;;;;4908452;29;20213;-77
2022/02/23 14:07:39;;;;;;;4.93;1.83;;;11.80;99.90;;;;;;4905834;29;20345;-78
2022/02/23 14:10:11;;;;;;;9.93;2.20;;;11.80;99.90;;;;;;4909252;29;20180;-78
2022/02/23 14:12:38;;;;;;;7.60;2.30;;;11.80;99.90;;;;;;4908410;29;20232;-78
2022/02/23 14:15:06;;;;;;;9.13;2.00;;;11.80;99.90;;;;;;4905967;29;20197;-78
2022/02/23 14:17:34;;;;;;;4.00;1.40;;;11.80;99.90;;;;;;4906400;29;20211;-78
2022/02/23 14:20:13;;;;;;;5.63;1.77;;;11.80;99.90;;;;;;4907126;29;20202;-77
2022/02/23 14:22:42;;;;;;;5.03;1.70;;;11.80;99.90;;;;;;4906724;29;20205;-78
2022/02/23 14:25:11;;;;;;;7.35;1.95;;;11.70;99.90;;;;;;4907103;29;20441;-77
2022/02/23 14:27:41;;;;;;;6.23;2.00;;;11.70;99.90;;;;;;4907927;29;20186;-78
2022/02/23 14:30:17;;;;;;;6.90;1.93;;;11.80;99.90;;;;;;4906586;29;20651;-77
2022/02/23 14:32:45;;;;;;;7.10;1.97;;;11.90;99.90;;;;;;4905875;29;20209;-77
2022/02/23 14:35:15;;;;;;;5.40;1.83;;;12.00;99.90;;;;;;4906903;29;20193;-78
2022/02/23 14:37:46;;;;;;;4.47;1.57;;;11.90;99.90;;;;;;4906627;29;20211;-78
2022/02/23 14:40:15;;;;;;;7.00;1.90;;;11.80;99.90;;;;;;4908339;29;20204;-78
2022/02/23 14:42:41;;;;;;;6.20;2.00;;;11.70;99.90;;;;;;4907319;29;20650;-78
2022/02/23 14:45:10;;;;;;;5.70;1.70;;;11.60;99.90;;;;;;4908438;29;20204;-78
2022/02/23 14:47:38;;;;;;;6.20;1.63;;;11.60;99.90;;;;;;4907767;29;20209;-81
2022/02/23 14:50:13;;;;;;;10.30;2.03;;;11.80;99.90;;;;;;4908053;29;20321;-78
2022/02/23 14:52:43;;;;;;;9.47;3.77;;;11.80;99.90;;;;;;4907273;29;20314;-77
2022/02/23 14:55:13;;;;;;;8.77;2.30;;;11.80;99.90;;;;;;4905584;29;20221;-78
2022/02/23 14:57:40;;;;;;;10.67;3.03;;;11.70;99.90;;;;;;4904887;29;20221;-79
2022/02/23 15:00:10;;;;;;;7.40;2.10;;;11.70;99.90;;;;;;4905819;29;20201;-78
2022/02/23 15:02:39;;;;;;;8.13;2.23;;;11.70;99.90;;;;;;4907285;29;20268;-78
2022/02/23 15:05:12;;;;;;;7.87;2.23;;;11.60;99.90;;;;;;4906960;29;20286;-78
2022/02/23 15:07:42;;;;;;;5.33;2.17;;;11.50;99.90;;;;;;4921672;29;20307;-79
2022/02/23 15:10:12;;;;;;;7.57;2.30;;;11.60;99.90;;;;;;4905429;29;20575;-78
2022/02/23 15:12:42;;;;;;;7.47;1.90;;;11.80;99.90;;;;;;4907755;29;20457;-77
2022/02/23 15:15:10;;;;;;;10.73;2.60;;;11.80;99.90;;;;;;4920469;29;20439;-79
2022/02/23 15:17:37;;;;;;;13.60;2.80;;;11.60;99.90;;;;;;4926066;29;20196;-78
2022/02/23 15:20:04;;;;;;;5.87;1.80;;;11.60;99.90;;;;;;4916122;29;20189;-77
2022/02/23 15:22:39;;;;;;;8.37;2.50;;;11.60;99.90;;;;;;4927767;29;20189;-77
2022/02/23 15:25:06;;;;;;;6.93;1.80;;;11.60;99.90;;;;;;4914795;29;20197;-78
2022/02/23 15:27:33;;;;;;;7.10;2.07;;;11.60;99.90;;;;;;4911791;29;20201;-78
2022/02/23 15:30:00;;;;;;;8.97;2.50;;;11.60;99.90;;;;;;4914550;29;20734;-78
2022/02/23 15:32:27;;;;;;;6.37;2.50;;;11.70;99.90;;;;;;4909573;29;20696;-78
2022/02/23 15:34:54;;;;;;;5.43;2.03;;;11.80;99.90;;;;;;4907455;29;20212;-77
2022/02/23 15:37:20;;;;;;;10.60;3.90;;;11.90;99.90;;;;;;4909839;29;20441;-78
2022/02/23 15:39:49;;;;;;;6.63;2.27;;;12.20;99.90;;;;;;4911348;29;20214;-77
2022/02/23 15:42:16;;;;;;;7.40;2.00;;;12.40;99.90;;;;;;4901226;29;20253;-77
2022/02/23 15:44:43;;;;;;;6.67;2.00;;;12.40;99.90;;;;;;4903595;29;20318;-78
2022/02/23 15:47:10;;;;;;;4.37;2.13;;;12.90;99.90;;;;;;4903727;29;20225;-78
2022/02/23 15:49:37;;;;;;;5.00;2.20;;;12.70;99.90;;;;;;4901902;29;20237;-78
2022/02/23 15:52:05;;;;;;;6.53;1.90;;;12.70;99.90;;;;;;4902786;29;20663;-79
2022/02/23 15:54:32;;;;;;;9.80;2.33;;;12.60;99.90;;;;;;4900923;29;20218;-79
2022/02/23 15:57:04;;;;;;;5.10;1.67;;;12.60;99.90;;;;;;4901500;29;20659;-81
2022/02/23 15:59:35;;;;;;;9.50;1.73;;;12.80;99.90;;;;;;4906766;29;20214;-80
2022/02/23 16:02:09;;;;;;;6.15;2.40;;;12.40;99.90;;;;;;4905000;29;20523;-78
2022/02/23 16:04:39;;;;;;;5.07;1.70;;;12.10;99.90;;;;;;4902968;29;20260;-78
2022/02/23 16:07:07;;;;;;;9.97;2.67;;;11.90;99.90;;;;;;4902748;29;20741;-78
2022/02/23 16:09:33;;;;;;;6.17;1.87;;;11.80;99.90;;;;;;4900676;29;20209;-78
2022/02/23 16:12:02;;;;;;;5.23;1.80;;;11.60;99.90;;;;;;4900051;29;20638;-78
2022/02/23 16:14:29;;;;;;;6.53;2.57;;;11.50;99.90;;;;;;4903330;29;20201;-79
2022/02/23 16:17:01;;;;;;;6.37;2.53;;;11.50;99.90;;;;;;4901760;29;20240;-78
2022/02/23 16:19:32;;;;;;;7.97;2.73;;;11.50;99.90;;;;;;4920950;29;20199;-78
2022/02/23 16:22:05;;;;;;;9.63;2.40;;;11.50;99.90;;;;;;4930400;29;20193;-79
2022/02/23 16:24:33;;;;;;;9.90;3.00;;;11.40;99.90;;;;;;4932012;29;20198;-78
2022/02/23 16:27:02;;;;;;;10.97;2.90;;;11.20;99.90;;;;;;4926699;29;20208;-79
2022/02/23 16:29:33;;;;;;;9.73;2.53;;;11.10;99.90;;;;;;4923432;29;20286;-79
2022/02/23 16:32:01;;;;;;;6.63;2.20;;;11.10;99.90;;;;;;4923519;29;20208;-79
2022/02/23 16:34:28;;;;;;;8.57;2.37;;;11.10;99.90;;;;;;4922055;29;20231;-79
2022/02/23 16:36:56;;;;;;;9.48;2.88;;;11.20;99.90;;;;;;4918300;29;20925;-79
2022/02/23 16:39:23;;;;;;;9.00;2.63;;;11.20;99.90;;;;;;4918927;29;20202;-79
2022/02/23 16:41:50;;;;;;;10.87;2.73;;;11.00;99.90;;;;;;4920034;29;20216;-79
2022/02/23 16:44:19;;;;;;;12.23;3.50;;;11.00;99.90;;;;;;4932132;29;20203;-79
2022/02/23 16:46:46;;;;;;;9.40;3.03;;;11.00;99.90;;;;;;4919267;29;20190;-79
2022/02/23 16:49:13;;;;;;;9.97;3.10;;;10.90;99.90;;;;;;4918404;29;20238;-79
2022/02/23 16:51:40;;;;;;;10.07;3.37;;;11.00;99.90;;;;;;4922003;29;20203;-79
2022/02/23 16:54:07;;;;;;;10.73;2.93;;;11.00;99.90;;;;;;4922537;29;20231;-79
2022/02/23 16:56:35;;;;;;;9.57;2.90;;;11.00;99.90;;;;;;4913007;29;20212;-80
2022/02/23 16:59:05;;;;;;;12.43;3.50;;;10.80;99.90;;;;;;4918569;29;20207;-80
2022/02/23 17:01:34;;;;;;;11.13;3.00;;;10.70;99.90;;;;;;4910729;29;20264;-80
2022/02/23 17:04:06;;;;;;;15.50;3.63;;;10.70;99.90;;;;;;4923822;29;20207;-80
2022/02/23 17:06:34;;;;;;;13.90;2.80;;;10.60;99.90;;;;;;4926033;29;20199;-79
2022/02/23 17:09:08;;;;;;;10.70;2.93;;;10.50;99.90;;;;;;4915877;29;20207;-79
2022/02/23 17:11:43;;;;;;;7.50;3.00;;;10.40;99.90;;;;;;4931357;29;20219;-79
2022/02/23 17:14:32;;;;;;;8.80;2.80;;;10.50;99.90;;;;;;4926644;29;20263;-80
2022/02/23 17:17:00;;;;;;;7.83;2.40;;;10.50;99.90;;;;;;4924841;29;20202;-79
2022/02/23 17:19:27;;;;;;;9.23;2.23;;;10.40;99.90;;;;;;4937046;29;20191;-80
2022/02/23 17:21:56;;;;;;;7.03;2.90;;;10.40;99.90;;;;;;4926949;29;20460;-80
2022/02/23 17:24:24;;;;;;;7.67;2.60;;;10.40;99.90;;;;;;4935406;29;20191;-79
2022/02/23 17:26:58;;;;;;;8.30;2.60;;;10.50;99.90;;;;;;4929240;29;20211;-80
2022/02/23 17:29:28;;;;;;;6.23;2.10;;;10.40;99.90;;;;;;4929147;29;20183;-79
2022/02/23 17:32:04;;;;;;;7.97;2.20;;;10.30;99.90;;;;;;4926564;29;20212;-79
2022/02/23 17:34:31;;;;;;;6.47;2.30;;;10.20;99.90;;;;;;4912787;29;20231;-79
2022/02/23 17:39:57;;;;;;;9.90;2.50;;;10.00;99.90;;;;;;5141092;27;20597;-78
2022/02/23 17:42:24;;;;;;;9.07;2.80;;;10.00;99.90;;;;;;5141028;27;20199;-79
2022/02/23 17:44:51;;;;;;;8.10;2.30;;;10.10;99.90;;;;;;5144825;28;20669;-79
2022/02/23 17:47:19;;;;;;;9.57;2.17;;;10.10;99.90;;;;;;5148329;28;20638;-78
2022/02/23 17:49:46;;;;;;;6.13;2.30;;;10.00;99.90;;;;;;5145467;28;20231;-80
2022/02/23 17:52:18;;;;;;;5.10;2.03;;;10.00;99.90;;;;;;5108113;28;20205;-79
2022/02/23 17:54:53;;;;;;;10.43;2.50;;;10.00;99.90;;;;;;5122001;28;20222;-83
2022/02/23 17:57:23;;;;;;;11.13;2.83;;;9.90;99.90;;;;;;5130817;28;20206;-80
2022/02/23 17:59:52;;;;;;;6.97;2.37;;;10.00;99.90;;;;;;5142984;27;20223;-79
2022/02/23 18:02:20;;;;;;;11.13;2.73;;;10.00;99.90;;;;;;5143773;28;20204;-80
2022/02/23 18:04:46;;;;;;;6.93;2.27;;;10.00;99.90;;;;;;5141038;28;20179;-78
2022/02/23 18:07:16;;;;;;;5.30;2.40;;;10.10;99.90;;;;;;5140152;27;20203;-80
2022/02/23 18:09:43;;;;;;;9.90;3.10;;;10.10;99.90;;;;;;5141223;27;20207;-80
2022/02/23 18:12:10;;;;;;;9.60;2.33;;;10.10;99.90;;;;;;5132671;28;20203;-79
2022/02/23 18:14:39;;;;;;;10.10;2.63;;;10.10;99.90;;;;;;5118676;28;20201;-78
2022/02/23 18:17:08;;;;;;;9.13;2.30;;;10.20;99.90;;;;;;5136125;28;20207;-78
2022/02/23 18:19:35;;;;;;;7.90;2.40;;;10.10;99.90;;;;;;5136207;28;20200;-80
2022/02/23 18:22:02;;;;;;;8.67;2.90;;;10.10;99.90;;;;;;5138400;28;20606;-79
2022/02/23 18:24:32;;;;;;;9.13;2.47;;;10.00;99.90;;;;;;5142805;27;20236;-87
2022/02/23 18:26:59;;;;;;;6.63;2.40;;;10.00;99.90;;;;;;5140734;28;20199;-78
2022/02/23 18:29:26;;;;;;;7.53;2.80;;;10.00;99.90;;;;;;5128946;28;20218;-78
2022/02/23 18:31:55;;;;;;;8.37;3.07;;;10.10;99.90;;;;;;5110360;28;20295;-78
2022/02/23 18:34:22;;;;;;;10.00;3.10;;;10.10;99.90;;;;;;5117072;28;20638;-78
2022/02/23 18:36:50;;;;;;;7.93;3.17;;;9.90;99.90;;;;;;5120121;28;20189;-78
2022/02/23 18:39:18;;;;;;;8.97;3.77;;;10.00;99.90;;;;;;5120985;28;20212;-75
2022/02/23 18:41:45;;;;;;;10.53;3.27;;;9.90;99.90;;;;;;5119650;28;20268;-76
2022/02/23 18:44:12;;;;;;;9.90;3.30;;;9.80;99.90;;;;;;5119777;28;20196;-76
2022/02/23 18:46:44;;;;;;;9.07;3.13;;;9.80;99.90;;;;;;5122111;28;20200;-77
2022/02/23 18:49:12;;;;;;;9.20;3.37;;;9.80;99.90;;;;;;5120633;28;20220;-75
2022/02/23 18:51:39;;;;;;;13.50;3.63;;;9.80;99.90;;;;;;5108608;28;20212;-76
2022/02/23 18:54:07;;;;;;;8.57;3.20;;;9.70;99.90;;;;;;5109171;28;20197;-76
2022/02/23 18:56:43;;;;;;;10.77;4.37;;;9.70;99.90;;;;;;5121109;28;20200;-75
2022/02/23 18:59:10;;;;;;;10.20;3.63;;;9.80;99.90;;;;;;5125078;28;20236;-75
2022/02/23 19:01:37;;;;;;;7.70;3.00;;;9.80;99.90;;;;;;5124291;28;20197;-76
2022/02/23 19:04:03;;;;;;;11.13;3.70;;;10.00;99.90;;;;;;5127933;28;20271;-75
2022/02/23 19:06:32;;;;;;;10.97;3.37;;;9.90;99.90;;;;;;5124370;28;20200;-76
2022/02/23 19:08:58;;;;;;;9.50;3.60;;;9.90;99.90;;;;;;5125924;28;20205;-75
2022/02/23 19:11:25;;;;;;;10.23;3.53;;;9.80;99.90;;;;;;5125812;28;20562;-76
2022/02/23 19:13:52;;;;;;;10.45;4.55;;;9.80;99.90;;;;;;5124653;28;20417;-76
2022/02/23 19:16:19;;;;;;;9.97;3.83;;;9.80;99.90;;;;;;5124554;28;20184;-76
2022/02/23 19:18:46;;;;;;;8.37;3.47;;;9.90;99.90;;;;;;5123284;28;20232;-76
2022/02/23 19:21:13;;;;;;;10.80;3.60;;;9.90;99.90;;;;;;5122237;28;20204;-75
2022/02/23 19:23:42;;;;;;;9.37;4.10;;;9.90;99.90;;;;;;5121516;28;20186;-76
2022/02/23 19:26:09;;;;;;;13.33;4.10;;;9.80;99.90;;;;;;5125117;28;20180;-76
2022/02/23 19:28:36;;;;;;;8.30;3.47;;;9.80;99.90;;;;;;5126946;28;20188;-78
2022/02/23 19:31:04;;;;;;;10.27;3.63;;;9.80;99.90;;;;;;5121602;28;20647;-75
2022/02/23 19:33:32;;;;;;;11.63;4.23;;;9.80;99.90;;;;;;5125526;28;20211;-76
2022/02/23 19:36:02;;;;;;;11.43;3.50;;;9.80;99.90;;;;;;5114682;28;20240;-75
2022/02/23 19:38:28;;;;;;;11.03;3.53;;;9.80;99.90;;;;;;5105088;28;20228;-75
2022/02/23 19:41:02;;;;;;;8.27;3.40;;;9.80;99.90;;;;;;5110121;28;20671;-76
2022/02/23 19:43:38;;;;;;;9.63;4.10;;;9.80;99.90;;;;;;5103524;28;20288;-75
2022/02/23 19:46:12;;;;;;;10.40;3.70;;;9.80;99.90;;;;;;5106714;28;20184;-76
2022/02/23 19:48:40;;;;;;;9.13;3.97;;;9.80;99.90;;;;;;5108269;28;20714;-77
2022/02/23 19:51:10;;;;;;;10.17;3.87;;;9.80;99.90;;;;;;5110975;28;20188;-76
2022/02/23 19:53:37;;;;;;;14.37;5.10;;;9.70;99.90;;;;;;5105146;28;20201;-77
2022/02/23 19:56:20;;;;;;;8.70;3.90;;;9.70;99.90;;;;;;5103350;28;20189;-77
2022/02/23 19:58:47;;;;;;;12.63;4.63;;;9.70;99.90;;;;;;5101499;28;20438;-77
2022/02/23 20:01:14;;;;;;;10.73;3.60;;;9.70;99.90;;;;;;5101891;28;20190;-77
2022/02/23 20:03:45;;;;;;;12.17;4.53;;;9.60;99.90;;;;;;5100517;28;20185;-77
2022/02/23 20:06:13;;;;;;;10.20;4.17;;;9.50;99.90;;;;;;5102705;28;20249;-76
2022/02/23 20:08:41;;;;;;;13.90;4.40;;;9.40;99.90;;;;;;5109312;28;20212;-76
2022/02/23 20:11:09;;;;;;;10.47;4.20;;;9.40;99.90;;;;;;5111063;28;20197;-78
2022/02/23 20:13:39;;;;;;;9.40;4.17;;;9.30;99.90;;;;;;5107656;28;20250;-77
2022/02/23 20:16:06;;;;;;;13.03;4.40;;;9.30;99.90;;;;;;5106196;28;20208;-77
2022/02/23 20:18:33;;;;;;;12.80;4.77;;;9.30;99.90;;;;;;5106832;28;20221;-77
2022/02/23 20:21:00;;;;;;;11.50;4.83;;;9.30;99.90;;;;;;5121364;28;20191;-76
2022/02/23 20:23:26;;;;;;;12.63;5.13;;;9.20;99.90;;;;;;5126319;28;20204;-76
2022/02/23 20:25:53;;;;;;;21.00;5.77;;;9.20;99.90;;;;;;5127891;28;20196;-77
2022/02/23 20:28:24;;;;;;;13.90;5.50;;;9.20;99.90;;;;;;5126502;28;20211;-77
2022/02/23 20:30:53;;;;;;;16.60;5.73;;;9.20;99.90;;;;;;5129330;28;20177;-77
2022/02/23 20:33:20;;;;;;;16.20;5.30;;;9.20;99.90;;;;;;5128286;28;20184;-78
2022/02/23 20:35:47;;;;;;;15.67;5.23;;;9.30;99.90;;;;;;5126247;28;20173;-76
2022/02/23 20:38:14;;;;;;;13.37;5.17;;;9.40;99.90;;;;;;5123383;28;20215;-76
2022/02/23 20:40:43;;;;;;;13.47;5.63;;;9.40;99.90;;;;;;5122516;28;20228;-77
2022/02/23 20:43:10;;;;;;;16.17;5.53;;;9.40;99.90;;;;;;5120575;28;20220;-78
2022/02/23 20:45:36;;;;;;;13.97;5.77;;;9.30;99.90;;;;;;5126353;28;20192;-78
2022/02/23 20:48:07;;;;;;;20.33;5.90;;;9.20;99.90;;;;;;5125303;28;20209;-79
2022/02/23 20:50:48;;;;;;;16.40;5.50;;;9.30;99.90;;;;;;5124861;28;20193;-79
2022/02/23 20:53:15;;;;;;;13.50;5.57;;;9.30;99.90;;;;;;5124020;28;20196;-78
2022/02/23 20:55:42;;;;;;;19.57;5.50;;;9.20;99.90;;;;;;5122817;28;20218;-78
2022/02/23 20:58:09;;;;;;;14.00;5.40;;;9.10;99.90;;;;;;5123187;28;20189;-78
2022/02/23 21:00:36;;;;;;;18.23;5.63;;;9.10;99.90;;;;;;5122293;28;20216;-80
2022/02/23 21:03:04;;;;;;;17.63;6.27;;;9.10;99.90;;;;;;5122052;28;20601;-78
2022/02/23 21:05:31;;;;;;;13.00;5.47;;;9.20;99.90;;;;;;5128105;28;20177;-79
2022/02/23 21:07:58;;;;;;;17.90;7.50;;;9.20;99.90;;;;;;5129658;28;20573;-78
2022/02/23 21:10:28;;;;;;;17.70;6.43;;;9.30;99.90;;;;;;5130940;28;20202;-78
2022/02/23 21:12:55;;;;;;;18.50;6.13;;;9.30;99.90;;;;;;5133343;28;20176;-78
2022/02/23 21:15:26;;;;;;;16.63;5.83;;;9.30;99.90;;;;;;5131791;28;20673;-79
2022/02/23 21:17:56;;;;;;;16.90;6.10;;;9.10;99.90;;;;;;5130418;28;20184;-78
2022/02/23 21:20:26;;;;;;;14.93;5.60;;;9.20;99.90;;;;;;5132095;28;20196;-78
2022/02/23 21:22:53;;;;;;;14.60;6.03;;;9.20;99.90;;;;;;5129306;28;20175;-78
2022/02/23 21:25:35;;;;;;;13.27;5.17;;;9.20;99.90;;;;;;5124710;28;20232;-78
2022/02/23 21:28:01;;;;;;;11.33;5.10;;;9.20;99.90;;;;;;5127471;28;20188;-78
2022/02/23 21:30:28;;;;;;;15.00;5.37;;;9.20;99.90;;;;;;5126168;28;20198;-78
2022/02/23 21:32:57;;;;;;;14.07;4.60;;;9.20;99.90;;;;;;5124842;28;20647;-78
2022/02/23 21:35:25;;;;;;;11.37;5.77;;;9.20;99.90;;;;;;5125692;28;20551;-78
2022/02/23 21:37:53;;;;;;;14.23;5.10;;;9.20;99.90;;;;;;5122202;28;20204;-78
2022/02/23 21:40:25;;;;;;;15.90;4.70;;;9.20;99.90;;;;;;5125016;28;20215;-78
2022/02/23 21:42:52;;;;;;;14.63;4.77;;;9.10;99.90;;;;;;5128768;28;20287;-78
2022/02/23 21:45:19;;;;;;;10.80;4.10;;;9.20;99.90;;;;;;5132603;28;20175;-78
2022/02/23 21:47:46;;;;;;;15.80;4.90;;;9.30;99.90;;;;;;5120317;28;20191;-78
2022/02/23 21:50:13;;;;;;;16.90;5.07;;;9.30;99.90;;;;;;5124568;28;20188;-78
2022/02/23 21:52:41;;;;;;;17.95;5.80;;;9.30;99.90;;;;;;5120572;28;20822;-78
2022/02/23 21:55:09;;;;;;;13.60;5.07;;;9.30;99.90;;;;;;5124023;28;20569;-78
2022/02/23 21:57:40;;;;;;;20.07;5.47;;;9.30;99.90;;;;;;5124627;28;20205;-78
2022/02/23 22:00:08;;;;;;;13.87;4.77;;;9.20;99.90;;;;;;5126462;28;20255;-78
2022/02/23 22:02:52;;;;;;;12.40;4.87;;;9.10;99.90;;;;;;5124371;28;20670;-77
2022/02/23 22:05:22;;;;;;;11.27;4.40;;;9.10;99.90;;;;;;5124592;28;20297;-78
2022/02/23 22:07:54;;;;;;;15.67;5.03;;;9.10;99.90;;;;;;5124828;28;20185;-78
2022/02/23 22:10:23;;;;;;;9.93;5.37;;;9.00;99.90;;;;;;5124054;28;20211;-77
2022/02/23 22:12:56;;;;;;;14.17;4.43;;;9.00;99.90;;;;;;5123834;28;20389;-79
2022/02/23 22:15:30;;;;;;;17.92;4.10;;;8.90;99.90;;;;;;5120952;28;20086;-79
2022/02/23 22:17:57;;;;;;;11.87;3.50;;;8.90;99.90;;;;;;5121282;28;20228;-77
2022/02/23 22:20:28;;;;;;;11.37;3.90;;;8.90;99.90;;;;;;5123217;28;20216;-78
2022/02/23 22:22:56;;;;;;;13.77;3.77;;;8.90;99.90;;;;;;5122365;28;20635;-78
2022/02/23 22:25:23;;;;;;;14.43;4.13;;;8.90;99.90;;;;;;5127397;28;20224;-78
2022/02/23 22:27:53;;;;;;;12.40;3.63;;;8.90;99.90;;;;;;5130339;28;20184;-78
2022/02/23 22:30:30;;;;;;;10.17;3.40;;;9.00;99.90;;;;;;5128419;28;20200;-78
2022/02/23 22:32:58;;;;;;;11.87;4.27;;;9.00;99.90;;;;;;5124766;28;20651;-78
2022/02/23 22:35:25;;;;;;;11.93;4.00;;;9.10;99.90;;;;;;5128284;28;20295;-78
2022/02/23 22:37:51;;;;;;;11.67;3.80;;;9.10;99.90;;;;;;5129349;28;20192;-78
2022/02/23 22:40:20;;;;;;;10.43;5.03;;;9.10;99.90;;;;;;5132093;28;20216;-78
2022/02/23 22:42:47;;;;;;;7.60;3.80;;;9.20;99.90;;;;;;5128573;28;20577;-78
2022/02/23 22:45:13;;;;;;;10.17;4.27;;;9.10;99.90;;;;;;5128783;28;20187;-78
2022/02/23 22:47:40;;;;;;;10.03;3.73;;;9.10;99.90;;;;;;5125494;28;20200;-78
2022/02/23 22:50:09;;;;;;;10.67;4.00;;;9.10;99.90;;;;;;5125760;28;20386;-78
2022/02/23 22:52:37;;;;;;;8.03;3.20;;;9.10;99.90;;;;;;5125661;28;20216;-78
2022/02/23 22:55:04;;;;;;;8.63;3.80;;;9.10;99.90;;;;;;5128368;28;20207;-78
2022/02/23 22:57:32;;;;;;;12.13;3.43;;;9.10;99.90;;;;;;5127141;28;20189;-78
2022/02/23 22:59:59;;;;;;;10.83;3.70;;;9.10;99.90;;;;;;5127070;28;20215;-79
2022/02/23 23:02:27;;;;;;;9.77;3.83;;;9.00;99.90;;;;;;5126970;28;20413;-78
2022/02/23 23:07:39;;;;;;;11.20;3.70;;;9.00;99.90;;;;;;5124697;28;20195;-78
2022/02/23 23:10:07;;;;;;;12.50;3.93;;;9.00;99.90;;;;;;5127910;28;20192;-77
2022/02/23 23:12:35;;;;;;;17.93;4.03;;;9.00;99.90;;;;;;5129638;28;20176;-78
2022/02/23 23:15:02;;;;;;;10.13;3.43;;;9.00;99.90;;;;;;5126745;28;20173;-78
2022/02/23 23:17:29;;;;;;;11.93;3.77;;;9.00;99.90;;;;;;5124726;28;20200;-77
2022/02/23 23:19:57;;;;;;;10.97;2.97;;;9.00;99.90;;;;;;5124969;28;20231;-78
2022/02/23 23:22:32;;;;;;;8.53;3.00;;;9.00;99.90;;;;;;5123852;28;20254;-78
2022/02/23 23:24:59;;;;;;;14.77;3.20;;;9.10;99.90;;;;;;5127227;28;20412;-78
2022/02/23 23:27:27;;;;;;;10.77;3.10;;;9.10;99.90;;;;;;5124613;28;20189;-78
2022/02/23 23:29:57;;;;;;;9.97;3.60;;;9.10;99.90;;;;;;5127458;28;20188;-78
2022/02/23 23:32:24;;;;;;;11.17;3.30;;;9.20;99.90;;;;;;5124978;28;20212;-79
2022/02/23 23:37:35;;;;;;;10.40;3.37;;;9.30;99.90;;;;;;5124203;28;20651;-79
2022/02/23 23:40:02;;;;;;;9.07;3.70;;;9.10;99.90;;;;;;5126910;28;20272;-79
2022/02/23 23:42:32;;;;;;;11.53;3.70;;;9.20;99.90;;;;;;5124733;28;20209;-78
2022/02/23 23:45:13;;;;;;;11.13;3.30;;;9.10;99.90;;;;;;5127079;28;20653;-78
2022/02/23 23:50:21;;;;;;;13.43;3.67;;;9.10;99.90;;;;;;5129312;28;20219;-78
2022/02/23 23:52:48;;;;;;;9.87;3.90;;;9.10;99.90;;;;;;5130006;28;20191;-78
2022/02/23 23:55:19;;;;;;;11.57;3.53;;;9.00;99.90;;;;;;5128611;28;20607;-78
2022/02/23 23:57:55;;;;;;;12.23;3.47;;;8.90;99.90;;;;;;5125452;28;20704;-79
